WXM80 ListenWXM80 Stop

You find our weather info also at:

UK Metoffice

WeatherCloud

Weather Underground

Northeastern Weather Network

AWEKAS

Citizen Weather Observer Program (CWOP)

HAMweather, WeatherForYou, PWS Weather


Weather Underground History page Text

Daily Summary for April 16, 2017 Units:  English    Metric   Both
« Previous Day
Next Day »
Daily Weekly Monthly Yearly Custom
  High: Low: Average:
Temperature: 87.2 °F 55.0 °F 70.4 °F
Dew Point: 61.8 °F 52.7 °F 57.3 °F
Humidity: 96 % 35 % 68 %
Wind Speed: 11.2 mph 0.0 mph 4.5 mph
Wind Gust: 20.7 mph - -
Wind:- - SW
Pressure: 30.04 in 29.71 in -
Precipitation: 0.00 in    
Historical Graphs
 
 
Tabular Data for April 16, 2017
Time Temperature Dew Point Pressure Wind Wind Speed Wind Gust Humidity Rainfall Rate (Hourly)
00:04 55.8 °F 52.9 °F 30.04 in SSW 4.5 mph 4.6 mph 90 % 0.00 in
00:09 55.8 °F 52.9 °F 30.04 in SW 4.2 mph 6.9 mph 90 % 0.00 in
00:14 55.7 °F 53.1 °F 30.04 in SSW 5.7 mph 9.2 mph 91 % 0.00 in
00:19 55.8 °F 53.2 °F 30.03 in SSW 5.5 mph 8.1 mph 91 % 0.00 in
00:24 55.8 °F 53.2 °F 30.02 in SSW 2.9 mph 8.1 mph 91 % 0.00 in
00:29 55.8 °F 53.2 °F 30.03 in WSW 4.3 mph 10.4 mph 91 % 0.00 in
00:34 55.8 °F 53.2 °F 30.02 in South 3.5 mph 5.8 mph 91 % 0.00 in
00:40 55.8 °F 53.2 °F 30.02 in SSW 4.3 mph 8.1 mph 91 % 0.00 in
00:45 55.8 °F 53.2 °F 30.02 in WSW 1.2 mph 3.5 mph 91 % 0.00 in
00:50 55.8 °F 53.2 °F 30.02 in SW 3.6 mph 5.0 mph 91 % 0.00 in
00:55 55.8 °F 53.2 °F 30.02 in SSW 1.2 mph 4.6 mph 91 % 0.00 in
01:00 55.7 °F 53.1 °F 30.01 in SSW 5.1 mph 9.2 mph 91 % 0.00 in
01:05 55.7 °F 53.4 °F 30.02 in SW 2.9 mph 4.6 mph 92 % 0.00 in
01:10 55.8 °F 53.5 °F 30.01 in SW 4.8 mph 6.0 mph 92 % 0.00 in
01:15 55.7 °F 53.4 °F 30.02 in WSW 2.0 mph 5.8 mph 92 % 0.00 in
01:20 55.7 °F 53.4 °F 30.01 in SSW 2.8 mph 3.5 mph 92 % 0.00 in
01:25 55.7 °F 53.4 °F 30.01 in SSW 2.2 mph 4.0 mph 92 % 0.00 in
01:30 55.6 °F 53.3 °F 30.01 in SSW 0.9 mph 4.6 mph 92 % 0.00 in
01:35 55.6 °F 53.3 °F 30.01 in SSW 2.7 mph 3.5 mph 92 % 0.00 in
01:40 55.6 °F 53.3 °F 30.01 in SW 1.9 mph 3.5 mph 92 % 0.00 in
01:45 55.5 °F 53.2 °F 30.00 in SSW 2.3 mph 3.0 mph 92 % 0.00 in
01:50 55.5 °F 53.2 °F 30.00 in SSW 0.8 mph 2.3 mph 92 % 0.00 in
01:55 55.5 °F 53.2 °F 30.00 in SSW 2.1 mph 3.5 mph 92 % 0.00 in
02:00 55.5 °F 53.2 °F 30.00 in SSW 1.6 mph 4.0 mph 92 % 0.00 in
02:05 55.4 °F 53.1 °F 30.00 in Calm   2.3 mph 92 % 0.00 in
02:10 55.4 °F 53.1 °F 30.00 in SW 0.1 mph 1.2 mph 92 % 0.00 in
02:15 55.4 °F 53.1 °F 30.00 in Calm   1.0 mph 92 % 0.00 in
02:20 55.3 °F 53.0 °F 29.99 in Calm     92 % 0.00 in
02:25 55.2 °F 52.9 °F 29.99 in Calm   1.2 mph 92 % 0.00 in
02:30 55.1 °F 52.8 °F 29.99 in SW 0.4 mph 1.2 mph 92 % 0.00 in
02:35 55.1 °F 52.8 °F 29.99 in Calm   1.0 mph 92 % 0.00 in
02:40 55.0 °F 52.7 °F 29.99 in SSW 0.7 mph 5.0 mph 92 % 0.00 in
02:45 55.0 °F 53.0 °F 29.99 in SSW 4.2 mph 4.6 mph 93 % 0.00 in
02:50 55.0 °F 53.0 °F 29.99 in WSW 1.0 mph 2.3 mph 93 % 0.00 in
02:55 55.1 °F 53.4 °F 29.99 in SW 3.2 mph 5.8 mph 94 % 0.00 in
03:00 55.3 °F 53.6 °F 29.99 in SSW 4.6 mph 8.1 mph 94 % 0.00 in
03:05 55.4 °F 53.7 °F 29.98 in WSW 4.2 mph 6.9 mph 94 % 0.00 in
03:10 55.5 °F 53.8 °F 29.98 in SSW 5.8 mph 10.4 mph 94 % 0.00 in
03:15 55.7 °F 54.3 °F 29.98 in SSW 5.0 mph 7.0 mph 95 % 0.00 in
03:20 55.8 °F 54.4 °F 29.97 in SW 5.4 mph 10.4 mph 95 % 0.00 in
03:25 55.9 °F 54.5 °F 29.97 in SSW 3.2 mph 6.9 mph 95 % 0.00 in
03:30 55.9 °F 54.5 °F 29.97 in SW 6.4 mph 9.2 mph 95 % 0.00 in
03:35 56.0 °F 54.6 °F 29.97 in SW 3.5 mph 5.8 mph 95 % 0.00 in
03:40 56.1 °F 54.7 °F 29.96 in SW 3.3 mph 6.9 mph 95 % 0.00 in
03:45 56.2 °F 54.8 °F 29.96 in SW 2.9 mph 5.8 mph 95 % 0.00 in
03:50 56.3 °F 54.9 °F 29.96 in SSW 4.0 mph 8.1 mph 95 % 0.00 in
03:55 56.4 °F 55.0 °F 29.96 in SSW 4.0 mph 6.9 mph 95 % 0.00 in
04:00 56.4 °F 55.0 °F 29.96 in SSW 4.5 mph 6.9 mph 95 % 0.00 in
04:05 56.5 °F 55.1 °F 29.96 in SW 3.3 mph 5.8 mph 95 % 0.00 in
04:10 56.6 °F 55.2 °F 29.95 in SW 2.7 mph 4.6 mph 95 % 0.00 in
04:15 56.7 °F 55.3 °F 29.95 in SW 3.2 mph 4.6 mph 95 % 0.00 in
04:21 56.7 °F 55.3 °F 29.95 in WSW 2.7 mph 4.0 mph 95 % 0.00 in
04:26 56.8 °F 55.4 °F 29.95 in SSW 3.8 mph 5.8 mph 95 % 0.00 in
04:31 56.9 °F 55.5 °F 29.95 in SSW 3.0 mph 4.6 mph 95 % 0.00 in
04:36 56.9 °F 55.5 °F 29.95 in SW 3.2 mph 5.8 mph 95 % 0.00 in
04:41 56.9 °F 55.5 °F 29.95 in WSW 1.4 mph 3.5 mph 95 % 0.00 in
04:46 56.9 °F 55.5 °F 29.95 in SW 1.9 mph 3.5 mph 95 % 0.00 in
04:51 56.9 °F 55.5 °F 29.95 in SW 1.8 mph 4.6 mph 95 % 0.00 in
04:56 57.0 °F 55.6 °F 29.95 in SW 3.3 mph 4.0 mph 95 % 0.00 in
05:01 57.0 °F 55.6 °F 29.95 in WSW 1.4 mph 2.3 mph 95 % 0.00 in
05:06 56.9 °F 55.5 °F 29.95 in SSW 1.7 mph 3.5 mph 95 % 0.00 in
05:16 56.9 °F 55.5 °F 29.95 in SSW 2.6 mph 4.6 mph 95 % 0.00 in
05:21 56.9 °F 55.5 °F 29.95 in SW 1.0 mph 4.6 mph 95 % 0.00 in
05:22 56.9 °F 55.5 °F 29.95 in SW 2.5 mph 4.0 mph 95 % 0.00 in
05:27 56.9 °F 55.5 °F 29.95 in SSW 3.6 mph 4.6 mph 95 % 0.00 in
05:32 56.9 °F 55.5 °F 29.95 in SW 1.7 mph 3.5 mph 95 % 0.00 in
05:37 56.9 °F 55.5 °F 29.95 in SW 2.0 mph 5.0 mph 95 % 0.00 in
05:42 56.9 °F 55.5 °F 29.95 in SW 2.0 mph 5.0 mph 95 % 0.00 in
05:47 57.0 °F 55.6 °F 29.95 in SW 2.0 mph 5.0 mph 95 % 0.00 in
05:52 57.1 °F 55.7 °F 29.95 in SW 5.0 mph 7.0 mph 95 % 0.00 in
05:57 57.2 °F 55.8 °F 29.95 in SW 2.9 mph 3.5 mph 95 % 0.00 in
06:02 57.3 °F 55.9 °F 29.94 in SW 2.6 mph 4.6 mph 95 % 0.00 in
06:07 57.4 °F 56.3 °F 29.94 in SW 2.6 mph 3.5 mph 96 % 0.00 in
06:12 57.5 °F 56.1 °F 29.94 in WSW 2.5 mph 5.8 mph 95 % 0.00 in
06:17 57.6 °F 56.2 °F 29.94 in SSW 3.4 mph 5.0 mph 95 % 0.00 in
06:22 57.6 °F 56.2 °F 29.94 in SW 2.8 mph 5.8 mph 95 % 0.00 in
06:27 57.7 °F 56.3 °F 29.95 in SSW 3.9 mph 6.9 mph 95 % 0.00 in
06:32 57.8 °F 56.7 °F 29.95 in WSW 3.7 mph 5.8 mph 96 % 0.00 in
06:37 57.9 °F 56.8 °F 29.95 in WSW 2.9 mph 5.8 mph 96 % 0.00 in
06:42 58.0 °F 56.6 °F 29.95 in SSW 3.0 mph 4.6 mph 95 % 0.00 in
06:47 58.1 °F 56.7 °F 29.95 in SW 4.4 mph 6.9 mph 95 % 0.00 in
07:02 58.5 °F 57.1 °F 29.95 in WSW 4.5 mph 8.1 mph 95 % 0.00 in
07:08 58.8 °F 57.4 °F 29.95 in SW 2.7 mph 3.5 mph 95 % 0.00 in
07:13 59.0 °F 57.6 °F 29.95 in SW 4.1 mph 4.6 mph 95 % 0.00 in
07:18 59.3 °F 57.9 °F 29.95 in WSW 4.8 mph 5.8 mph 95 % 0.00 in
07:23 59.5 °F 58.1 °F 29.95 in SSW 5.0 mph 8.1 mph 95 % 0.00 in
07:28 59.9 °F 58.5 °F 29.95 in SSW 3.0 mph 6.0 mph 95 % 0.00 in
07:33 60.2 °F 58.8 °F 29.94 in SSW 4.7 mph 8.1 mph 95 % 0.00 in
07:38 60.7 °F 59.0 °F 29.95 in SW 5.7 mph 8.1 mph 94 % 0.00 in
07:43 61.2 °F 59.5 °F 29.94 in SW 3.5 mph 6.9 mph 94 % 0.00 in
07:48 61.7 °F 59.7 °F 29.94 in WSW 4.8 mph 7.0 mph 93 % 0.00 in
07:53 62.2 °F 59.8 °F 29.94 in SSW 6.0 mph 9.2 mph 92 % 0.00 in
07:58 62.7 °F 60.0 °F 29.94 in SW 4.0 mph 7.0 mph 91 % 0.00 in
08:03 63.2 °F 60.2 °F 29.94 in SW 5.7 mph 9.2 mph 90 % 0.00 in
08:08 63.8 °F 60.5 °F 29.94 in SW 5.7 mph 10.4 mph 89 % 0.00 in
08:13 64.3 °F 60.7 °F 29.94 in SSW 4.6 mph 8.1 mph 88 % 0.00 in
08:18 64.8 °F 60.8 °F 29.94 in SSW 4.8 mph 8.1 mph 87 % 0.00 in
08:23 65.4 °F 60.8 °F 29.93 in SSW 5.3 mph 8.1 mph 85 % 0.00 in
08:28 65.8 °F 60.8 °F 29.93 in SW 6.3 mph 11.0 mph 84 % 0.00 in
08:33 66.3 °F 61.0 °F 29.93 in SSW 6.5 mph 10.0 mph 83 % 0.00 in
08:38 66.7 °F 60.7 °F 29.93 in SSW 7.1 mph 9.2 mph 81 % 0.00 in
08:43 67.2 °F 60.8 °F 29.93 in SW 7.4 mph 11.5 mph 80 % 0.00 in
08:48 67.8 °F 61.4 °F 29.93 in South 5.1 mph 6.9 mph 80 % 0.00 in
08:53 68.5 °F 61.4 °F 29.92 in SSW 6.5 mph 8.1 mph 78 % 0.00 in
08:58 69.1 °F 61.6 °F 29.93 in South 5.4 mph 6.9 mph 77 % 0.00 in
09:03 69.8 °F 61.5 °F 29.92 in SSW 4.3 mph 6.0 mph 75 % 0.00 in
09:08 70.5 °F 61.4 °F 29.93 in WSW 5.4 mph 10.4 mph 73 % 0.00 in
09:13 71.1 °F 61.2 °F 29.93 in West 5.5 mph 9.2 mph 71 % 0.00 in
09:24 72.6 °F 61.4 °F 29.92 in SSW 3.2 mph 5.8 mph 68 % 0.00 in
09:29 73.3 °F 61.3 °F 29.92 in SSW 7.8 mph 10.4 mph 66 % 0.00 in
09:34 73.9 °F 61.4 °F 29.92 in WSW 4.5 mph 9.0 mph 65 % 0.00 in
09:39 74.7 °F 61.7 °F 29.92 in WNW 6.0 mph 8.1 mph 64 % 0.00 in
09:44 75.3 °F 61.8 °F 29.92 in WSW 3.6 mph 8.1 mph 63 % 0.00 in
09:49 76.0 °F 61.6 °F 29.92 in SSW 6.6 mph 11.5 mph 61 % 0.00 in
09:59 77.1 °F 61.2 °F 29.92 in SW 5.8 mph 12.0 mph 58 % 0.00 in
10:04 77.0 °F 60.6 °F 29.92 in West 4.2 mph 6.9 mph 57 % 0.00 in
10:09 76.7 °F 59.8 °F 29.92 in NW 4.3 mph 9.2 mph 56 % 0.00 in
10:14 76.7 °F 60.3 °F 29.92 in WSW 8.1 mph 16.1 mph 57 % 0.00 in
10:19 76.7 °F 59.8 °F 29.91 in WSW 6.7 mph 11.5 mph 56 % 0.00 in
10:24 76.6 °F 59.7 °F 29.91 in SW 6.7 mph 11.5 mph 56 % 0.00 in
10:29 76.6 °F 60.2 °F 29.91 in WNW 4.3 mph 11.5 mph 57 % 0.00 in
10:34 76.6 °F 60.2 °F 29.91 in WSW 5.6 mph 11.5 mph 57 % 0.00 in
10:39 76.9 °F 61.5 °F 29.90 in SW 3.6 mph 8.1 mph 59 % 0.00 in
10:45 77.3 °F 60.4 °F 29.90 in SSW 4.9 mph 11.5 mph 56 % 0.00 in
10:50 77.7 °F 60.8 °F 29.90 in SSW 2.4 mph 6.9 mph 56 % 0.00 in
10:55 78.0 °F 60.0 °F 29.89 in SW 5.6 mph 12.7 mph 54 % 0.00 in
11:00 78.3 °F 61.3 °F 29.89 in West 3.4 mph 5.8 mph 56 % 0.00 in
11:05 78.9 °F 60.3 °F 29.89 in WSW 4.7 mph 10.4 mph 53 % 0.00 in
11:10 79.5 °F 60.3 °F 29.89 in WSW 5.9 mph 11.5 mph 52 % 0.00 in
11:15 80.1 °F 59.8 °F 29.89 in West 4.2 mph 9.2 mph 50 % 0.00 in
11:20 80.5 °F 60.7 °F 29.89 in WSW 6.8 mph 9.2 mph 51 % 0.00 in
11:25 80.9 °F 59.9 °F 29.89 in SW 7.5 mph 15.0 mph 49 % 0.00 in
11:30 81.0 °F 60.0 °F 29.89 in WSW 6.9 mph 13.8 mph 49 % 0.00 in
11:35 81.2 °F 60.2 °F 29.89 in WNW 6.8 mph 12.7 mph 49 % 0.00 in
11:40 81.2 °F 60.2 °F 29.88 in NW 3.7 mph 13.8 mph 49 % 0.00 in
11:45 81.4 °F 59.2 °F 29.88 in SW 7.8 mph 16.1 mph 47 % 0.00 in
11:50 81.5 °F 59.9 °F 29.88 in WSW 5.9 mph 11.5 mph 48 % 0.00 in
11:55 81.3 °F 59.1 °F 29.88 in WSW 7.3 mph 11.5 mph 47 % 0.00 in
12:00 81.0 °F 58.9 °F 29.88 in WSW 5.4 mph 8.1 mph 47 % 0.00 in
12:05 80.7 °F 59.2 °F 29.88 in WSW 6.2 mph 12.7 mph 48 % 0.00 in
12:10 80.9 °F 59.4 °F 29.87 in SW 6.7 mph 11.5 mph 48 % 0.00 in
12:15 81.2 °F 59.6 °F 29.87 in SW 6.3 mph 11.5 mph 48 % 0.00 in
12:20 81.2 °F 59.1 °F 29.86 in WSW 4.7 mph 11.5 mph 47 % 0.00 in
12:25 81.2 °F 58.5 °F 29.86 in WSW 7.3 mph 12.7 mph 46 % 0.00 in
12:30 81.2 °F 58.5 °F 29.85 in SW 4.0 mph 6.9 mph 46 % 0.00 in
12:35 81.5 °F 58.7 °F 29.85 in SW 7.0 mph 17.0 mph 46 % 0.00 in
12:40 82.2 °F 58.1 °F 29.85 in WSW 7.3 mph 13.8 mph 44 % 0.00 in
12:45 82.8 °F 59.3 °F 29.84 in West 4.3 mph 8.1 mph 45 % 0.00 in
12:50 83.6 °F 59.4 °F 29.84 in WSW 6.4 mph 9.2 mph 44 % 0.00 in
12:55 84.1 °F 58.5 °F 29.84 in WSW 5.4 mph 15.0 mph 42 % 0.00 in
12:58 84.5 °F 58.9 °F 29.84 in WSW 7.4 mph 9.2 mph 42 % 0.00 in
13:03 85.1 °F 58.8 °F 29.84 in SW 7.5 mph 20.7 mph 41 % 0.00 in
13:08 85.3 °F 58.2 °F 29.83 in West 9.3 mph 12.7 mph 40 % 0.00 in
13:13 85.3 °F 56.8 °F 29.83 in WSW 10.0 mph 17.0 mph 38 % 0.00 in
13:18 85.4 °F 56.2 °F 29.83 in West 6.3 mph 19.6 mph 37 % 0.00 in
13:23 85.4 °F 56.2 °F 29.82 in WNW 7.8 mph 11.5 mph 37 % 0.00 in
13:28 85.4 °F 55.4 °F 29.82 in SW 7.5 mph 18.4 mph 36 % 0.00 in
13:33 85.3 °F 56.1 °F 29.82 in WSW 7.8 mph 10.4 mph 37 % 0.00 in
13:38 85.5 °F 55.5 °F 29.82 in SW 9.4 mph 18.4 mph 36 % 0.00 in
13:43 85.6 °F 54.8 °F 29.82 in SW 9.5 mph 18.4 mph 35 % 0.00 in
13:48 85.7 °F 56.4 °F 29.81 in WNW 7.3 mph 13.8 mph 37 % 0.00 in
13:53 85.8 °F 55.8 °F 29.81 in WSW 9.2 mph 9.2 mph 36 % 0.00 in
13:58 85.7 °F 55.7 °F 29.81 in WSW 9.3 mph 15.0 mph 36 % 0.00 in
14:03 85.8 °F 56.5 °F 29.80 in WSW 7.7 mph 11.5 mph 37 % 0.00 in
14:08 86.1 °F 56.0 °F 29.80 in SW 6.0 mph 13.8 mph 36 % 0.00 in
14:13 86.3 °F 56.2 °F 29.80 in SW 7.2 mph 18.4 mph 36 % 0.00 in
14:18 86.5 °F 55.6 °F 29.80 in West 9.7 mph 18.4 mph 35 % 0.00 in
14:23 86.6 °F 55.7 °F 29.80 in WSW 4.3 mph 17.3 mph 35 % 0.00 in
14:28 87.0 °F 56.8 °F 29.79 in West 3.6 mph 12.7 mph 36 % 0.00 in
14:33 87.1 °F 56.1 °F 29.79 in WNW 5.0 mph 15.0 mph 35 % 0.00 in
14:38 87.1 °F 56.1 °F 29.79 in SW 5.3 mph 15.0 mph 35 % 0.00 in
14:43 87.0 °F 56.0 °F 29.79 in WSW 4.0 mph 6.9 mph 35 % 0.00 in
14:48 87.0 °F 56.0 °F 29.79 in WNW 5.6 mph 11.0 mph 35 % 0.00 in
14:53 87.0 °F 56.8 °F 29.78 in SW 6.8 mph 9.2 mph 36 % 0.00 in
14:58 86.8 °F 56.6 °F 29.78 in WSW 7.2 mph 12.0 mph 36 % 0.00 in
15:03 86.7 °F 56.6 °F 29.77 in WSW 8.1 mph 19.6 mph 36 % 0.00 in
15:08 86.9 °F 57.5 °F 29.77 in SW 11.2 mph 16.1 mph 37 % 0.00 in
15:13 87.1 °F 59.1 °F 29.77 in SSW 7.8 mph 10.4 mph 39 % 0.00 in
15:18 87.2 °F 59.9 °F 29.77 in SSW 9.2 mph 18.4 mph 40 % 0.00 in
15:23 87.2 °F 59.2 °F 29.76 in South 7.5 mph 13.8 mph 39 % 0.00 in
15:28 86.8 °F 59.6 °F 29.76 in SSW 5.6 mph 9.2 mph 40 % 0.00 in
15:33 86.7 °F 58.8 °F 29.76 in South 7.6 mph 11.5 mph 39 % 0.00 in
15:39 86.4 °F 59.9 °F 29.75 in SSW 7.3 mph 12.0 mph 41 % 0.00 in
15:49 85.4 °F 59.7 °F 29.75 in WSW 4.4 mph 7.0 mph 42 % 0.00 in
15:54 85.2 °F 58.2 °F 29.75 in SSW 9.5 mph 15.0 mph 40 % 0.00 in
15:59 84.7 °F 58.4 °F 29.75 in SSW 9.7 mph 16.1 mph 41 % 0.00 in
16:04 84.2 °F 57.9 °F 29.75 in SSW 8.5 mph 13.8 mph 41 % 0.00 in
16:09 83.8 °F 58.3 °F 29.75 in SSW 3.0 mph 4.6 mph 42 % 0.00 in
16:14 83.5 °F 58.0 °F 29.75 in SW 7.3 mph 11.5 mph 42 % 0.00 in
16:19 83.2 °F 57.7 °F 29.75 in SSW 6.8 mph 10.4 mph 42 % 0.00 in
16:24 82.8 °F 57.4 °F 29.75 in WSW 4.7 mph 7.0 mph 42 % 0.00 in
16:29 82.5 °F 55.7 °F 29.75 in SW 7.5 mph 11.5 mph 40 % 0.00 in
16:34 82.2 °F 55.5 °F 29.75 in WSW 5.0 mph 11.5 mph 40 % 0.00 in
16:39 81.6 °F 56.9 °F 29.75 in SW 5.6 mph 11.0 mph 43 % 0.00 in
16:44 81.2 °F 55.9 °F 29.75 in SW 9.0 mph 13.8 mph 42 % 0.00 in
16:49 81.0 °F 56.4 °F 29.75 in WSW 6.4 mph 12.7 mph 43 % 0.00 in
16:54 81.2 °F 56.6 °F 29.75 in SSW 5.2 mph 15.0 mph 43 % 0.00 in
16:59 81.2 °F 57.2 °F 29.74 in SW 5.3 mph 9.2 mph 44 % 0.00 in
17:09 81.4 °F 57.4 °F 29.75 in WSW 3.9 mph 6.9 mph 44 % 0.00 in
17:14 81.2 °F 57.2 °F 29.75 in West 3.5 mph 9.2 mph 44 % 0.00 in
17:19 81.1 °F 57.1 °F 29.75 in WSW 4.9 mph 6.0 mph 44 % 0.00 in
17:24 80.7 °F 56.8 °F 29.75 in SW 5.6 mph 10.4 mph 44 % 0.00 in
17:29 80.2 °F 56.9 °F 29.74 in SW 5.7 mph 15.0 mph 45 % 0.00 in
17:34 80.0 °F 57.4 °F 29.74 in South 4.1 mph 8.1 mph 46 % 0.00 in
17:39 80.0 °F 57.4 °F 29.73 in WSW 5.1 mph 11.5 mph 46 % 0.00 in
17:44 80.3 °F 58.2 °F 29.73 in SW 5.4 mph 9.2 mph 47 % 0.00 in
17:49 80.5 °F 57.8 °F 29.73 in WSW 2.8 mph 6.9 mph 46 % 0.00 in
17:54 80.7 °F 58.0 °F 29.73 in SSW 1.1 mph 4.0 mph 46 % 0.00 in
17:59 80.7 °F 58.0 °F 29.73 in SSW 3.0 mph 5.8 mph 46 % 0.00 in
18:04 80.7 °F 58.0 °F 29.73 in SW 2.8 mph 9.2 mph 46 % 0.00 in
18:09 80.6 °F 57.9 °F 29.73 in SW 6.2 mph 11.5 mph 46 % 0.00 in
18:14 80.5 °F 57.2 °F 29.73 in SW 4.9 mph 6.9 mph 45 % 0.00 in
18:19 80.4 °F 57.1 °F 29.73 in SSW 5.3 mph 9.2 mph 45 % 0.00 in
18:24 80.3 °F 57.6 °F 29.73 in SSW 4.0 mph 6.9 mph 46 % 0.00 in
18:29 80.2 °F 57.5 °F 29.72 in SSW 5.1 mph 7.0 mph 46 % 0.00 in
18:34 80.0 °F 57.4 °F 29.72 in SSW 5.1 mph 8.1 mph 46 % 0.00 in
18:39 79.8 °F 57.2 °F 29.71 in SSW 7.3 mph 9.2 mph 46 % 0.00 in
18:44 79.7 °F 57.7 °F 29.71 in WSW 7.3 mph 11.5 mph 47 % 0.00 in
18:55 79.4 °F 58.0 °F 29.71 in SSW 5.1 mph 9.2 mph 48 % 0.00 in
19:00 79.3 °F 58.5 °F 29.71 in SSW 4.2 mph 6.9 mph 49 % 0.00 in
19:05 79.1 °F 58.3 °F 29.71 in SSW 6.0 mph 9.2 mph 49 % 0.00 in
19:10 78.9 °F 58.7 °F 29.72 in South 4.0 mph 6.0 mph 50 % 0.00 in
19:15 78.5 °F 59.4 °F 29.71 in South 5.3 mph 10.4 mph 52 % 0.00 in
19:20 78.1 °F 59.6 °F 29.71 in SSW 2.3 mph 5.0 mph 53 % 0.00 in
19:25 77.6 °F 59.6 °F 29.72 in SSW 6.7 mph 12.0 mph 54 % 0.00 in
19:30 77.1 °F 59.7 °F 29.72 in SSE 4.9 mph 9.2 mph 55 % 0.00 in
19:35 76.6 °F 59.2 °F 29.72 in SW 6.0 mph 9.0 mph 55 % 0.00 in
19:40 76.1 °F 58.8 °F 29.72 in SSW 8.1 mph 11.5 mph 55 % 0.00 in
19:45 75.7 °F 58.4 °F 29.72 in SSW 6.2 mph 11.5 mph 55 % 0.00 in
19:50 75.4 °F 58.1 °F 29.73 in South 3.4 mph 10.4 mph 55 % 0.00 in
19:55 75.2 °F 57.9 °F 29.73 in SSW 6.1 mph 12.7 mph 55 % 0.00 in
20:00 74.9 °F 57.6 °F 29.73 in SSW 7.8 mph 12.7 mph 55 % 0.00 in
20:05 74.7 °F 57.5 °F 29.73 in WSW 4.5 mph 9.2 mph 55 % 0.00 in
20:10 74.4 °F 57.2 °F 29.73 in SSW 5.0 mph 6.9 mph 55 % 0.00 in
20:15 74.2 °F 57.0 °F 29.74 in South 1.6 mph 4.6 mph 55 % 0.00 in
20:20 74.0 °F 56.8 °F 29.74 in SW 4.8 mph 6.0 mph 55 % 0.00 in
20:25 73.9 °F 57.2 °F 29.74 in SW 4.3 mph 7.0 mph 56 % 0.00 in
20:30 73.7 °F 57.0 °F 29.74 in SW 2.2 mph 5.8 mph 56 % 0.00 in
20:35 73.7 °F 57.0 °F 29.74 in SSW 1.9 mph 4.6 mph 56 % 0.00 in
20:40 73.6 °F 56.9 °F 29.75 in SSW 1.7 mph 6.9 mph 56 % 0.00 in
20:45 73.7 °F 57.0 °F 29.78 in NNW 3.4 mph 5.0 mph 56 % 0.00 in
20:50 73.2 °F 55.0 °F 29.78 in NNW 7.0 mph 11.5 mph 53 % 0.00 in
20:55 72.6 °F 57.0 °F 29.79 in WNW 4.1 mph 10.4 mph 58 % 0.00 in
21:00 72.2 °F 57.5 °F 29.80 in North 4.7 mph 10.4 mph 60 % 0.00 in
21:05 71.7 °F 58.0 °F 29.80 in WNW 2.1 mph 4.6 mph 62 % 0.00 in
21:10 71.5 °F 58.2 °F 29.81 in WNW 1.7 mph 3.5 mph 63 % 0.00 in
21:15 71.1 °F 58.3 °F 29.81 in West 1.5 mph 4.6 mph 64 % 0.00 in
21:20 70.7 °F 58.4 °F 29.82 in West 2.5 mph 3.5 mph 65 % 0.00 in
21:22 70.4 °F 58.1 °F 29.82 in West 0.9 mph 4.6 mph 65 % 0.00 in
21:27 69.9 °F 58.9 °F 29.82 in West 2.6 mph 5.8 mph 68 % 0.00 in
21:32 69.6 °F 59.0 °F 29.82 in WNW 1.4 mph 3.5 mph 69 % 0.00 in
21:37 69.4 °F 59.2 °F 29.82 in West 1.5 mph 3.5 mph 70 % 0.00 in
21:43 69.2 °F 59.4 °F 29.83 in WNW 3.1 mph 5.0 mph 71 % 0.00 in
21:48 69.0 °F 60.0 °F 29.83 in SW 4.7 mph 5.8 mph 73 % 0.00 in
21:53 69.0 °F 60.0 °F 29.83 in WSW 4.2 mph 6.9 mph 73 % 0.00 in
21:57 69.0 °F 59.6 °F 29.82 in West 5.7 mph 9.2 mph 72 % 0.00 in
22:02 68.8 °F 59.0 °F 29.83 in WNW 3.9 mph 8.0 mph 71 % 0.00 in
22:08 68.7 °F 58.9 °F 29.83 in WSW 5.4 mph 8.1 mph 71 % 0.00 in
22:13 68.6 °F 58.8 °F 29.82 in West 5.7 mph 9.2 mph 71 % 0.00 in
22:18 68.5 °F 59.5 °F 29.82 in WNW 2.2 mph 9.0 mph 73 % 0.00 in
22:23 68.3 °F 59.3 °F 29.82 in West 4.1 mph 6.9 mph 73 % 0.00 in
22:28 68.1 °F 59.5 °F 29.81 in WNW 2.8 mph 8.1 mph 74 % 0.00 in
22:33 67.9 °F 59.3 °F 29.81 in WNW 5.4 mph 8.1 mph 74 % 0.00 in
22:37 67.6 °F 59.4 °F 29.81 in WSW 4.1 mph 7.0 mph 75 % 0.00 in
22:47 67.3 °F 58.7 °F 29.80 in SW 2.6 mph 8.1 mph 74 % 0.00 in
22:53 67.1 °F 58.9 °F 29.80 in WSW 1.3 mph 3.5 mph 75 % 0.00 in
22:57 67.0 °F 58.4 °F 29.80 in WSW 1.9 mph 9.2 mph 74 % 0.00 in
23:03 66.8 °F 58.2 °F 29.80 in WSW 2.6 mph 6.9 mph 74 % 0.00 in
23:08 66.7 °F 58.5 °F 29.80 in WSW 3.1 mph 6.0 mph 75 % 0.00 in
23:13 66.6 °F 58.4 °F 29.80 in SSW 3.2 mph 6.0 mph 75 % 0.00 in
23:18 66.5 °F 58.3 °F 29.80 in SSW 2.0 mph 6.9 mph 75 % 0.00 in
23:23 66.5 °F 58.3 °F 29.80 in West 2.2 mph 8.1 mph 75 % 0.00 in
23:28 66.6 °F 58.4 °F 29.79 in WNW 2.0 mph 3.5 mph 75 % 0.00 in
23:33 66.6 °F 58.4 °F 29.79 in WSW 1.3 mph 4.0 mph 75 % 0.00 in
23:38 66.6 °F 58.4 °F 29.79 in SW 2.0 mph 4.6 mph 75 % 0.00 in
23:43 66.6 °F 58.4 °F 29.79 in SW 3.1 mph 4.0 mph 75 % 0.00 in
23:48 66.6 °F 58.4 °F 29.79 in SW 2.4 mph 3.5 mph 75 % 0.00 in
23:53 66.6 °F 58.4 °F 29.79 in SW 2.1 mph 3.5 mph 75 % 0.00 in
23:58 66.5 °F 58.3 °F 29.79 in SW 2.4 mph 3.5 mph 75 % 0.00 in
Crab Meadow Weather
Compliments of Weather Underground - 2.75 mb

Script developed by  Jim McMurry - jmcmurry@mwt.net Adapted for the template by  Wim van der Kuil - Leuven-Template.eu

Weather Terms: Lake Effect Snow Warning - Lake effect snowfall of 6 inches or more in 12 hours or less, or 8 inches or more in 24 hours or less.